Time;durP1;ratioP1;P1;durP2;ratioP2;P2;SDS_P1;SDS_P2;PMS_P1;PMS_P2;Temp;Humidity;BMP_temperature;BMP_pressure;BME280_temperature;BME280_humidity;BME280_pressure;Samples;Min_cycle;Max_cycle;Signal;HPM_P1;HPM_P2
2022/01/04 00:02:06;;;;;;;20.20;12.30;;;9.70;99.30;;;;;;5116070;28;20032;-77
2022/01/04 00:04:32;;;;;;;19.07;12.07;;;9.70;99.30;;;;;;5114269;28;20023;-77
2022/01/04 00:06:58;;;;;;;23.10;12.80;;;9.60;99.30;;;;;;5114717;28;20040;-77
2022/01/04 00:09:23;;;;;;;19.53;12.07;;;9.60;99.40;;;;;;5109380;28;20028;-77
2022/01/04 00:14:21;;;;;;;19.13;12.07;;;9.60;99.40;;;;;;5113019;28;20047;-76
2022/01/04 00:16:50;;;;;;;21.63;12.13;;;9.60;99.50;;;;;;5115258;28;20058;-75
2022/01/04 00:19:17;;;;;;;15.70;10.17;;;9.60;99.50;;;;;;5115178;28;20032;-76
2022/01/04 00:21:43;;;;;;;15.47;10.43;;;9.60;99.50;;;;;;5114369;28;20011;-76
2022/01/04 00:24:09;;;;;;;19.20;11.47;;;9.60;99.60;;;;;;5113852;28;20369;-76
2022/01/04 00:26:34;;;;;;;16.80;10.33;;;9.50;99.50;;;;;;5115622;28;20031;-76
2022/01/04 00:29:00;;;;;;;15.50;11.07;;;9.60;99.60;;;;;;5115310;28;20023;-76
2022/01/04 00:31:26;;;;;;;16.73;9.73;;;9.50;99.90;;;;;;5115118;28;20107;-76
2022/01/04 00:33:52;;;;;;;16.43;10.23;;;9.50;99.60;;;;;;5097395;28;20031;-76
2022/01/04 00:36:17;;;;;;;15.50;9.80;;;9.50;99.60;;;;;;5114990;28;20028;-76
2022/01/04 00:38:43;;;;;;;15.10;9.30;;;9.50;99.60;;;;;;5113908;28;20433;-76
2022/01/04 00:41:09;;;;;;;15.80;10.47;;;9.50;99.60;;;;;;5114846;28;20028;-76
2022/01/04 00:43:34;;;;;;;19.10;9.83;;;9.50;99.70;;;;;;5096789;28;20071;-76
2022/01/04 00:46:00;;;;;;;18.23;10.13;;;9.50;99.70;;;;;;5115044;28;20028;-76
2022/01/04 00:50:52;;;;;;;20.93;11.77;;;9.50;99.70;;;;;;5113745;28;20040;-76
2022/01/04 00:53:19;;;;;;;14.60;11.17;;;9.50;99.70;;;;;;5110083;28;20036;-76
2022/01/04 00:55:44;;;;;;;21.17;12.97;;;9.50;99.70;;;;;;5112875;28;20036;-76
2022/01/04 00:58:10;;;;;;;18.60;10.90;;;9.40;99.70;;;;;;5095790;28;20024;-76
2022/01/04 01:00:36;;;;;;;18.00;11.77;;;9.50;99.70;;;;;;5114327;28;20099;-76
2022/01/04 01:03:02;;;;;;;16.27;11.90;;;9.50;99.70;;;;;;5112922;28;20111;-76
2022/01/04 01:05:29;;;;;;;16.07;11.00;;;9.60;99.80;;;;;;5114160;28;20032;-76
2022/01/04 01:07:56;;;;;;;17.63;10.77;;;9.50;99.70;;;;;;5096396;28;20097;-76
2022/01/04 01:13:05;;;;;;;20.00;11.03;;;9.50;99.70;;;;;;5111905;28;20035;-76
2022/01/04 01:15:30;;;;;;;18.07;12.07;;;9.50;99.70;;;;;;5092311;28;20161;-76
2022/01/04 01:17:56;;;;;;;18.93;10.87;;;9.50;99.70;;;;;;5093703;28;20024;-76
2022/01/04 01:20:21;;;;;;;19.33;11.80;;;9.60;99.70;;;;;;5094122;28;20032;-76
2022/01/04 01:22:47;;;;;;;18.13;11.83;;;9.60;99.70;;;;;;5092227;28;20043;-76
2022/01/04 01:25:13;;;;;;;16.23;11.70;;;9.50;99.60;;;;;;5093824;28;20036;-76
2022/01/04 01:27:40;;;;;;;16.87;12.00;;;9.60;99.90;;;;;;5092394;28;20058;-76
2022/01/04 01:30:07;;;;;;;17.47;11.93;;;9.60;99.70;;;;;;5092738;28;20062;-76
2022/01/04 01:32:32;;;;;;;14.33;10.50;;;9.60;99.70;;;;;;5092488;28;20032;-73
2022/01/04 01:34:58;;;;;;;20.13;11.83;;;9.60;99.60;;;;;;5092338;28;20036;-74
2022/01/04 01:37:24;;;;;;;21.20;11.53;;;9.60;99.60;;;;;;5093580;28;20121;-73
2022/01/04 01:39:49;;;;;;;23.83;13.53;;;9.60;99.60;;;;;;5092570;28;20070;-73
2022/01/04 01:42:15;;;;;;;20.07;13.30;;;9.60;99.60;;;;;;5075557;28;20468;-73
2022/01/04 01:44:40;;;;;;;20.13;12.57;;;9.60;99.60;;;;;;5074993;28;20052;-74
2022/01/04 01:47:06;;;;;;;16.93;12.50;;;9.70;99.60;;;;;;5093426;28;20373;-73
2022/01/04 01:49:32;;;;;;;16.83;12.63;;;9.60;99.50;;;;;;5092106;28;20056;-74
2022/01/04 01:51:59;;;;;;;18.23;12.00;;;9.80;99.60;;;;;;5075745;28;20048;-73
2022/01/04 01:54:25;;;;;;;17.93;11.13;;;9.60;99.50;;;;;;5092281;28;20028;-74
2022/01/04 01:56:51;;;;;;;19.63;12.03;;;9.70;99.50;;;;;;5075757;28;20028;-74
2022/01/04 01:59:17;;;;;;;20.20;12.20;;;9.60;99.50;;;;;;5093716;28;20028;-73
2022/01/04 02:01:42;;;;;;;20.53;14.33;;;9.60;99.40;;;;;;5092263;28;20400;-76
2022/01/04 02:04:08;;;;;;;18.80;13.17;;;9.60;99.40;;;;;;5059652;28;20464;-76
2022/01/04 02:06:34;;;;;;;21.67;13.67;;;9.60;99.40;;;;;;5093492;28;20025;-76
2022/01/04 02:09:01;;;;;;;19.80;12.90;;;9.60;99.40;;;;;;5093432;28;20468;-76
2022/01/04 02:11:29;;;;;;;18.50;12.27;;;9.60;99.40;;;;;;5093339;28;20043;-76
2022/01/04 02:13:58;;;;;;;19.43;12.20;;;9.60;99.40;;;;;;5093401;28;20415;-75
2022/01/04 02:16:25;;;;;;;18.87;13.47;;;9.60;99.40;;;;;;5092014;28;20428;-76
2022/01/04 02:18:52;;;;;;;19.83;13.97;;;9.50;99.40;;;;;;5091944;28;20349;-75
2022/01/04 02:21:18;;;;;;;20.70;14.20;;;9.60;99.30;;;;;;5092219;28;20468;-76
2022/01/04 02:23:44;;;;;;;20.60;12.40;;;9.60;99.30;;;;;;5093353;28;20119;-76
2022/01/04 02:26:09;;;;;;;20.10;12.80;;;9.60;99.60;;;;;;5111875;28;20020;-76
2022/01/04 02:28:35;;;;;;;20.17;13.40;;;9.50;99.30;;;;;;5112567;28;20031;-76
2022/01/04 02:31:01;;;;;;;25.53;14.27;;;9.50;99.30;;;;;;5112262;28;20447;-76
2022/01/04 02:33:27;;;;;;;20.63;12.33;;;9.50;99.30;;;;;;5113575;28;20020;-76
2022/01/04 02:35:53;;;;;;;21.23;13.20;;;9.50;99.30;;;;;;5115932;28;20475;-76
2022/01/04 02:38:18;;;;;;;20.77;12.63;;;9.50;99.40;;;;;;5117242;28;20088;-76
2022/01/04 02:40:44;;;;;;;17.20;12.37;;;9.50;99.30;;;;;;5116269;28;20520;-76
2022/01/04 02:43:10;;;;;;;19.53;13.60;;;9.50;99.30;;;;;;5117119;28;20015;-76
2022/01/04 02:45:35;;;;;;;21.37;13.77;;;9.50;99.30;;;;;;5116249;28;20028;-76
2022/01/04 02:48:01;;;;;;;25.47;13.47;;;9.50;99.30;;;;;;5117672;28;20023;-73
2022/01/04 02:50:28;;;;;;;19.27;13.87;;;9.50;99.30;;;;;;5117119;28;20035;-73
2022/01/04 02:52:54;;;;;;;17.57;12.70;;;9.50;99.60;;;;;;5117512;28;20110;-74
2022/01/04 02:55:20;;;;;;;18.33;12.97;;;9.50;99.30;;;;;;5116749;28;20071;-73
2022/01/04 02:57:46;;;;;;;17.97;12.40;;;9.50;99.30;;;;;;5098817;28;20073;-73
2022/01/04 03:00:15;;;;;;;19.07;12.83;;;9.40;99.30;;;;;;5098767;28;20467;-73
2022/01/04 03:02:42;;;;;;;18.20;13.30;;;9.40;99.30;;;;;;5117296;28;20024;-76
2022/01/04 03:05:08;;;;;;;21.30;13.47;;;9.40;99.20;;;;;;5116897;28;20028;-76
2022/01/04 03:07:34;;;;;;;19.97;13.20;;;9.40;99.20;;;;;;5116692;28;20023;-76
2022/01/04 03:10:00;;;;;;;19.13;11.60;;;9.40;99.20;;;;;;5098550;28;20073;-75
2022/01/04 03:12:26;;;;;;;17.20;11.83;;;9.40;99.20;;;;;;5115623;28;20384;-76
2022/01/04 03:14:51;;;;;;;18.13;12.10;;;9.40;99.20;;;;;;5098277;28;20034;-76
2022/01/04 03:17:17;;;;;;;18.77;11.50;;;9.40;99.30;;;;;;5116733;28;20020;-76
2022/01/04 03:19:42;;;;;;;20.13;12.30;;;9.40;99.20;;;;;;5116738;28;20028;-76
2022/01/04 03:22:08;;;;;;;18.60;12.20;;;9.40;99.20;;;;;;5115808;28;20451;-76
2022/01/04 03:24:34;;;;;;;20.93;11.80;;;9.40;99.20;;;;;;5117010;28;20063;-75
2022/01/04 03:27:00;;;;;;;20.57;12.73;;;9.40;99.20;;;;;;5115831;28;20034;-76
2022/01/04 03:29:26;;;;;;;22.57;12.50;;;9.40;99.20;;;;;;5116362;28;20454;-76
2022/01/04 03:31:52;;;;;;;17.47;11.53;;;9.40;99.40;;;;;;5114927;28;20027;-73
2022/01/04 03:34:18;;;;;;;17.97;12.50;;;9.40;99.20;;;;;;5115250;28;20024;-76
2022/01/04 03:36:44;;;;;;;18.73;12.07;;;9.40;99.20;;;;;;5115074;28;20080;-76
2022/01/04 03:39:11;;;;;;;22.93;13.27;;;9.40;99.20;;;;;;5116162;28;20028;-76
2022/01/04 03:41:40;;;;;;;19.37;12.37;;;9.40;99.10;;;;;;5114815;28;20051;-76
2022/01/04 03:44:07;;;;;;;19.77;12.83;;;9.40;99.10;;;;;;5114785;28;20032;-76
2022/01/04 03:46:33;;;;;;;23.73;13.13;;;9.40;99.20;;;;;;5115442;28;20383;-76
2022/01/04 03:48:59;;;;;;;16.63;11.20;;;9.40;99.10;;;;;;5114721;28;20035;-76
2022/01/04 03:51:24;;;;;;;15.90;10.80;;;9.30;99.10;;;;;;5115090;28;20024;-76
2022/01/04 03:53:50;;;;;;;23.53;11.87;;;9.40;99.20;;;;;;5115908;28;20031;-76
2022/01/04 03:56:16;;;;;;;19.60;12.13;;;9.30;99.10;;;;;;5115770;28;20396;-76
2022/01/04 03:58:42;;;;;;;20.53;12.73;;;9.40;99.20;;;;;;5114520;28;20156;-76
2022/01/04 04:01:08;;;;;;;21.90;13.57;;;9.30;99.20;;;;;;5114699;28;20020;-76
2022/01/04 04:03:34;;;;;;;18.97;11.83;;;9.30;99.20;;;;;;5114679;28;20098;-76
2022/01/04 04:06:00;;;;;;;18.80;12.07;;;9.30;99.20;;;;;;5115399;28;20030;-76
2022/01/04 04:08:25;;;;;;;21.50;11.47;;;9.30;99.20;;;;;;5114137;28;20028;-76
2022/01/04 04:10:51;;;;;;;21.43;12.60;;;9.30;99.20;;;;;;5115359;28;20020;-76
2022/01/04 04:13:17;;;;;;;21.07;12.87;;;9.30;99.20;;;;;;5114082;28;20471;-73
2022/01/04 04:15:44;;;;;;;20.67;13.93;;;9.30;99.20;;;;;;5115404;28;20517;-73
2022/01/04 04:18:10;;;;;;;18.00;13.13;;;9.20;99.20;;;;;;5114218;28;20463;-74
2022/01/04 04:20:37;;;;;;;19.70;13.73;;;9.20;99.20;;;;;;5115279;28;20030;-74
2022/01/04 04:23:04;;;;;;;20.23;12.60;;;9.30;99.20;;;;;;5113981;28;20019;-74
2022/01/04 04:25:31;;;;;;;20.90;13.50;;;9.30;99.20;;;;;;5096762;28;20503;-74
2022/01/04 04:27:57;;;;;;;19.53;12.87;;;9.20;99.20;;;;;;5113897;28;20368;-74
2022/01/04 04:30:22;;;;;;;23.47;14.57;;;9.20;99.20;;;;;;5114909;28;20032;-74
2022/01/04 04:32:48;;;;;;;20.67;13.60;;;9.20;99.30;;;;;;5114995;28;20028;-74
2022/01/04 04:35:14;;;;;;;17.87;12.30;;;9.20;99.30;;;;;;5096804;28;20118;-74
2022/01/04 04:37:40;;;;;;;20.63;12.60;;;9.20;99.30;;;;;;5113941;28;20110;-73
2022/01/04 04:40:06;;;;;;;22.80;13.87;;;9.20;99.30;;;;;;5096722;28;20123;-73
2022/01/04 04:42:32;;;;;;;21.77;13.80;;;9.10;99.30;;;;;;5113772;28;20030;-74
2022/01/04 04:44:58;;;;;;;20.63;13.13;;;9.20;99.30;;;;;;5114958;28;20118;-73
2022/01/04 04:47:24;;;;;;;20.33;13.97;;;9.10;99.20;;;;;;5113945;28;20106;-74
2022/01/04 04:49:49;;;;;;;20.13;13.60;;;9.20;99.30;;;;;;5113467;28;20483;-73
2022/01/04 04:52:15;;;;;;;25.30;15.87;;;9.20;99.30;;;;;;5114603;28;20547;-74
2022/01/04 04:54:41;;;;;;;26.93;17.00;;;9.10;99.20;;;;;;5114931;28;20104;-74
2022/01/04 04:57:06;;;;;;;23.63;15.63;;;9.10;99.50;;;;;;5113148;28;20023;-74
2022/01/04 04:59:32;;;;;;;22.93;15.37;;;9.10;99.20;;;;;;5113135;28;20380;-73
2022/01/04 05:01:58;;;;;;;22.50;15.70;;;9.00;99.20;;;;;;5114859;28;20028;-74
2022/01/04 05:04:23;;;;;;;27.40;17.33;;;9.10;99.30;;;;;;5113639;28;20030;-74
2022/01/04 05:06:49;;;;;;;24.17;16.70;;;9.10;99.30;;;;;;5113529;28;20388;-74
2022/01/04 05:09:15;;;;;;;25.67;17.33;;;9.10;99.30;;;;;;5113500;28;20024;-74
2022/01/04 05:11:40;;;;;;;24.20;16.60;;;9.00;99.30;;;;;;5113418;28;20031;-74
2022/01/04 05:14:06;;;;;;;23.67;16.30;;;9.00;99.50;;;;;;5114348;28;20031;-74
2022/01/04 05:16:31;;;;;;;28.60;17.43;;;9.00;99.30;;;;;;5113238;28;20019;-74
2022/01/04 05:18:57;;;;;;;22.47;15.80;;;9.10;99.30;;;;;;5114404;28;20031;-74
2022/01/04 05:21:23;;;;;;;25.20;15.87;;;9.00;99.60;;;;;;5114192;28;20462;-74
2022/01/04 05:23:50;;;;;;;27.17;16.63;;;9.00;99.30;;;;;;5112962;28;20020;-73
2022/01/04 05:26:15;;;;;;;24.30;15.23;;;9.00;99.40;;;;;;5112949;28;20031;-73
2022/01/04 05:28:45;;;;;;;22.43;15.93;;;9.00;99.30;;;;;;5113263;28;20028;-73
2022/01/04 05:31:11;;;;;;;24.47;15.23;;;9.10;99.40;;;;;;5114381;28;20456;-74
2022/01/04 05:33:37;;;;;;;26.30;16.20;;;9.10;99.40;;;;;;5114191;28;20110;-73
2022/01/04 05:36:02;;;;;;;26.80;15.60;;;9.10;99.40;;;;;;5095908;28;20135;-74
2022/01/04 05:38:28;;;;;;;21.67;14.77;;;9.10;99.40;;;;;;5112797;28;20023;-73
2022/01/04 05:40:54;;;;;;;26.97;16.67;;;9.00;99.30;;;;;;5095950;28;20088;-73
2022/01/04 05:43:19;;;;;;;29.10;15.80;;;9.00;99.30;;;;;;5112566;28;20024;-73
2022/01/04 05:45:45;;;;;;;25.20;15.27;;;9.00;99.30;;;;;;5112939;28;20067;-73
2022/01/04 05:48:11;;;;;;;25.93;15.43;;;9.00;99.30;;;;;;5113154;28;20020;-74
2022/01/04 05:50:38;;;;;;;21.10;15.47;;;9.00;99.40;;;;;;5114144;28;20039;-73
2022/01/04 05:53:04;;;;;;;21.47;15.00;;;9.00;99.40;;;;;;5112795;28;20079;-73
2022/01/04 05:55:30;;;;;;;21.67;15.20;;;9.10;99.40;;;;;;5113907;28;20035;-73
2022/01/04 05:57:55;;;;;;;20.90;13.80;;;9.00;99.30;;;;;;5113094;28;20073;-73
2022/01/04 06:00:21;;;;;;;28.00;16.30;;;9.00;99.40;;;;;;5112900;28;20112;-73
2022/01/04 06:02:47;;;;;;;24.17;16.30;;;9.00;99.30;;;;;;5113832;28;20106;-74
2022/01/04 06:05:12;;;;;;;22.97;15.73;;;9.00;99.30;;;;;;5114028;28;20071;-74
2022/01/04 06:07:38;;;;;;;22.27;14.97;;;9.00;99.30;;;;;;5078609;28;20052;-73
2022/01/04 06:10:06;;;;;;;22.87;15.13;;;9.00;99.30;;;;;;5116580;28;20026;-73
2022/01/04 06:15:00;;;;;;;20.20;13.87;;;9.00;99.70;;;;;;5118058;28;20527;-73
2022/01/04 06:17:33;;;;;;;22.73;15.07;;;8.90;99.40;;;;;;5116048;28;20092;-73
2022/01/04 06:20:00;;;;;;;23.33;14.35;;;8.90;99.40;;;;;;5095841;28;20024;-73
2022/01/04 06:22:27;;;;;;;24.73;14.83;;;8.90;99.50;;;;;;5097565;28;20032;-75
2022/01/04 06:24:54;;;;;;;23.40;15.90;;;8.90;99.50;;;;;;5103634;28;20032;-75
2022/01/04 06:27:20;;;;;;;25.23;16.03;;;8.90;99.60;;;;;;5117368;28;20100;-75
2022/01/04 06:29:47;;;;;;;25.93;15.80;;;8.90;99.60;;;;;;5116705;28;20395;-76
2022/01/04 06:32:13;;;;;;;26.43;15.80;;;8.90;99.60;;;;;;5117680;28;20692;-75
2022/01/04 06:34:41;;;;;;;25.27;15.97;;;8.90;99.80;;;;;;5116105;28;20027;-76
2022/01/04 06:37:07;;;;;;;25.87;15.80;;;8.90;99.70;;;;;;5116101;28;20063;-76
2022/01/04 06:39:34;;;;;;;23.97;13.87;;;8.90;99.70;;;;;;5116046;28;20474;-76
2022/01/04 06:41:59;;;;;;;25.13;16.80;;;8.90;99.70;;;;;;5116127;28;20028;-75
2022/01/04 06:44:25;;;;;;;24.10;16.33;;;8.90;99.70;;;;;;5098840;28;20046;-75
2022/01/04 06:46:51;;;;;;;24.03;15.93;;;8.90;99.70;;;;;;5115473;28;20459;-75
2022/01/04 06:49:18;;;;;;;24.77;16.17;;;8.90;99.70;;;;;;5110041;28;20023;-75
2022/01/04 06:51:45;;;;;;;24.77;16.07;;;8.90;99.80;;;;;;5114621;28;20046;-75
2022/01/04 06:54:12;;;;;;;30.90;16.90;;;8.90;99.80;;;;;;5101809;28;20484;-76
2022/01/04 06:56:38;;;;;;;27.40;17.80;;;8.90;99.90;;;;;;5096857;28;20031;-75
2022/01/04 06:59:05;;;;;;;28.07;17.30;;;8.90;99.80;;;;;;5112602;28;20030;-74
2022/01/04 07:01:31;;;;;;;29.57;18.40;;;8.90;99.80;;;;;;5115043;28;20355;-74
2022/01/04 07:03:57;;;;;;;26.57;17.57;;;8.90;99.70;;;;;;5112298;28;20024;-74
2022/01/04 07:06:23;;;;;;;27.43;17.97;;;8.90;99.70;;;;;;5115455;28;20400;-73
2022/01/04 07:08:48;;;;;;;29.13;17.87;;;8.90;99.80;;;;;;5115367;28;20475;-74
2022/01/04 07:11:15;;;;;;;27.47;17.17;;;8.90;99.80;;;;;;5115133;28;20031;-73
2022/01/04 07:13:41;;;;;;;31.23;18.23;;;8.90;99.80;;;;;;5098560;28;20027;-74
2022/01/04 07:16:06;;;;;;;27.57;17.70;;;8.90;99.80;;;;;;5115446;28;20028;-74
2022/01/04 07:18:33;;;;;;;27.00;17.23;;;8.90;99.80;;;;;;5115646;28;20030;-75
2022/01/04 07:20:58;;;;;;;26.73;17.43;;;8.90;99.80;;;;;;5115758;28;20366;-74
2022/01/04 07:23:24;;;;;;;29.43;18.27;;;8.80;99.80;;;;;;5115325;28;20118;-74
2022/01/04 07:25:51;;;;;;;34.67;19.67;;;8.90;99.80;;;;;;5116912;28;20032;-74
2022/01/04 07:28:17;;;;;;;29.30;18.53;;;8.80;99.90;;;;;;5115061;28;20454;-75
2022/01/04 07:30:43;;;;;;;30.97;19.50;;;8.90;99.90;;;;;;5097974;28;20032;-74
2022/01/04 07:33:08;;;;;;;35.63;19.20;;;8.80;99.90;;;;;;5115271;28;20459;-75
2022/01/04 07:35:34;;;;;;;32.40;19.30;;;8.80;99.90;;;;;;5114841;28;20063;-74
2022/01/04 07:38:00;;;;;;;28.67;17.70;;;8.70;99.90;;;;;;5088641;28;20028;-74
2022/01/04 07:40:26;;;;;;;33.53;19.47;;;8.80;99.90;;;;;;5080219;28;20024;-75
2022/01/04 07:42:53;;;;;;;31.07;18.67;;;8.70;99.90;;;;;;5097867;28;20020;-75
2022/01/04 07:45:19;;;;;;;36.20;19.23;;;8.70;99.90;;;;;;5114673;28;20043;-74
2022/01/04 07:47:44;;;;;;;30.40;18.97;;;8.70;99.90;;;;;;5115830;28;20034;-75
2022/01/04 07:50:11;;;;;;;29.37;18.73;;;8.60;99.90;;;;;;5078152;28;20384;-74
2022/01/04 07:52:37;;;;;;;33.73;19.90;;;8.60;99.90;;;;;;5115444;28;20479;-75
2022/01/04 07:55:04;;;;;;;31.97;19.50;;;8.60;99.90;;;;;;5114236;28;20036;-75
2022/01/04 07:57:30;;;;;;;29.77;17.83;;;8.60;99.90;;;;;;5115789;28;20399;-75
2022/01/04 07:59:56;;;;;;;33.77;18.70;;;8.60;99.90;;;;;;5114212;28;20098;-75
2022/01/04 08:02:21;;;;;;;29.57;17.20;;;8.60;99.90;;;;;;5114263;28;20073;-75
2022/01/04 08:04:47;;;;;;;30.00;18.87;;;8.60;99.90;;;;;;5097553;28;20076;-75
2022/01/04 08:07:13;;;;;;;32.40;18.70;;;8.60;99.90;;;;;;5115735;28;20106;-74
2022/01/04 08:09:39;;;;;;;33.03;18.93;;;8.60;99.90;;;;;;5114691;28;20031;-74
2022/01/04 08:12:05;;;;;;;34.27;19.70;;;8.70;99.90;;;;;;5114537;28;20035;-75
2022/01/04 08:14:31;;;;;;;34.27;20.93;;;8.70;99.90;;;;;;5097232;28;20032;-75
2022/01/04 08:16:56;;;;;;;31.80;18.67;;;8.70;99.90;;;;;;5115551;28;20076;-74
2022/01/04 08:19:22;;;;;;;34.47;18.90;;;8.70;99.90;;;;;;5114091;28;20020;-75
2022/01/04 08:21:48;;;;;;;30.67;18.80;;;8.70;99.90;;;;;;5114294;28;20043;-75
2022/01/04 08:24:14;;;;;;;33.67;19.40;;;8.70;99.90;;;;;;5115225;28;20027;-75
2022/01/04 08:26:40;;;;;;;31.37;18.33;;;8.70;99.90;;;;;;5113981;28;20158;-75
2022/01/04 08:29:05;;;;;;;33.10;18.87;;;8.70;99.90;;;;;;5114178;28;20153;-75
2022/01/04 08:31:31;;;;;;;31.63;18.80;;;8.70;99.90;;;;;;5114922;28;20122;-75
2022/01/04 08:33:58;;;;;;;35.13;20.73;;;8.80;99.90;;;;;;5113627;28;20120;-75
2022/01/04 08:36:27;;;;;;;33.57;18.77;;;8.70;99.90;;;;;;5097001;28;20023;-75
2022/01/04 08:38:55;;;;;;;35.97;20.03;;;8.80;99.90;;;;;;5096932;28;20067;-74
2022/01/04 08:41:21;;;;;;;33.97;19.93;;;8.80;99.90;;;;;;5115109;28;20024;-76
2022/01/04 08:43:46;;;;;;;34.23;21.00;;;8.80;99.90;;;;;;5096345;28;20396;-77
2022/01/04 08:46:12;;;;;;;39.23;20.63;;;8.80;99.90;;;;;;5096791;28;20048;-76
2022/01/04 08:48:38;;;;;;;33.63;19.67;;;8.80;99.90;;;;;;5114653;28;20023;-77
2022/01/04 08:51:04;;;;;;;34.67;20.67;;;8.80;99.90;;;;;;5114752;28;20038;-76
2022/01/04 08:53:30;;;;;;;36.83;21.60;;;8.80;99.90;;;;;;5114344;28;20387;-76
2022/01/04 08:56:01;;;;;;;30.97;18.27;;;8.80;99.90;;;;;;5096371;28;20027;-76
2022/01/04 08:58:27;;;;;;;36.60;19.43;;;8.90;99.90;;;;;;5113145;28;20076;-76
2022/01/04 09:00:52;;;;;;;40.13;22.43;;;8.90;99.90;;;;;;5114652;28;20059;-76
2022/01/04 09:03:18;;;;;;;36.97;21.97;;;8.90;99.90;;;;;;5096162;28;20047;-76
2022/01/04 09:05:43;;;;;;;33.63;19.47;;;8.90;99.90;;;;;;5114792;28;20519;-76
2022/01/04 09:08:10;;;;;;;33.17;19.57;;;9.00;99.90;;;;;;5096315;28;20031;-76
2022/01/04 09:10:36;;;;;;;33.97;20.33;;;8.80;99.90;;;;;;5113195;28;20375;-76
2022/01/04 09:13:14;;;;;;;36.10;20.43;;;8.90;99.90;;;;;;5113767;28;20020;-76
2022/01/04 09:20:52;;;;;;;37.93;20.13;;;9.00;99.90;;;;;;5114426;28;20119;-76
2022/01/04 09:23:20;;;;;;;36.03;21.50;;;9.00;99.90;;;;;;5113208;28;20478;-76
2022/01/04 09:25:47;;;;;;;37.03;20.37;;;9.00;99.90;;;;;;5096253;28;20172;-77
2022/01/04 09:28:13;;;;;;;42.37;22.13;;;9.00;99.90;;;;;;5112985;28;20047;-76
2022/01/04 09:30:41;;;;;;;38.83;23.17;;;9.00;99.90;;;;;;5112118;28;20493;-76
2022/01/04 09:33:07;;;;;;;36.90;22.10;;;8.90;99.90;;;;;;5112455;28;20476;-76
2022/01/04 09:35:35;;;;;;;36.90;21.17;;;8.80;99.90;;;;;;5107537;28;20055;-76
2022/01/04 09:38:01;;;;;;;39.07;22.33;;;8.80;99.90;;;;;;5104534;28;20110;-77
2022/01/04 09:40:26;;;;;;;42.67;24.90;;;8.80;99.90;;;;;;5111761;28;20058;-76
2022/01/04 09:42:52;;;;;;;40.43;23.37;;;8.70;99.90;;;;;;5112159;28;20027;-78
2022/01/04 09:45:18;;;;;;;42.50;24.10;;;8.70;99.90;;;;;;5094655;28;20051;-77
2022/01/04 09:47:44;;;;;;;39.30;22.53;;;8.70;99.90;;;;;;5113518;28;20039;-77
2022/01/04 09:50:10;;;;;;;30.23;14.47;;;8.50;99.90;;;;;;5112492;28;20039;-76
2022/01/04 09:52:42;;;;;;;18.77;9.80;;;8.50;99.90;;;;;;5113360;28;20031;-77
2022/01/04 09:55:11;;;;;;;15.53;7.67;;;8.30;99.90;;;;;;5112424;28;20077;-76
2022/01/04 09:57:37;;;;;;;14.47;7.60;;;8.20;99.90;;;;;;5113507;28;20107;-76
2022/01/04 10:00:05;;;;;;;13.13;6.93;;;8.20;99.90;;;;;;5095552;28;20364;-76
2022/01/04 10:02:31;;;;;;;18.10;6.80;;;8.10;99.90;;;;;;5095185;28;20027;-76
2022/01/04 10:05:17;;;;;;;14.50;6.60;;;8.10;99.90;;;;;;5110421;28;20031;-76
2022/01/04 10:07:44;;;;;;;13.40;5.60;;;8.10;99.90;;;;;;5112177;28;20027;-77
2022/01/04 10:10:13;;;;;;;13.47;6.20;;;8.00;99.90;;;;;;5111835;28;20036;-76
2022/01/04 10:12:59;;;;;;;17.80;7.40;;;8.00;99.90;;;;;;5113677;28;20028;-76
2022/01/04 10:15:38;;;;;;;12.27;5.77;;;7.90;99.90;;;;;;5113805;28;20028;-76
2022/01/04 10:18:23;;;;;;;13.10;5.97;;;7.90;99.90;;;;;;5113625;28;20375;-76
2022/01/04 10:21:12;;;;;;;12.13;5.97;;;7.90;99.90;;;;;;5112229;28;20051;-76
2022/01/04 10:23:51;;;;;;;13.97;6.53;;;7.90;99.90;;;;;;5112283;28;20020;-76
2022/01/04 10:26:25;;;;;;;15.67;6.07;;;7.90;99.90;;;;;;5113182;28;20475;-76
2022/01/04 10:28:51;;;;;;;13.20;6.23;;;8.00;99.90;;;;;;5113261;28;20394;-76
2022/01/04 10:31:18;;;;;;;14.30;7.50;;;8.00;99.90;;;;;;5112085;28;20084;-76
2022/01/04 10:33:44;;;;;;;13.80;7.77;;;7.90;99.90;;;;;;5112567;28;20081;-76
2022/01/04 10:36:11;;;;;;;17.77;9.07;;;8.10;99.90;;;;;;5095685;28;20028;-76
2022/01/04 10:38:42;;;;;;;20.70;9.33;;;8.10;99.90;;;;;;5113673;28;20061;-76
2022/01/04 10:41:25;;;;;;;21.40;11.20;;;8.10;99.90;;;;;;5112162;28;20023;-76
2022/01/04 10:43:55;;;;;;;24.67;13.33;;;8.20;99.90;;;;;;5112384;28;20019;-76
2022/01/04 10:46:38;;;;;;;25.97;13.70;;;8.20;99.90;;;;;;5111891;28;20449;-76
2022/01/04 10:49:21;;;;;;;25.60;15.07;;;8.30;99.90;;;;;;5113355;28;20029;-76
2022/01/04 10:52:05;;;;;;;29.97;15.20;;;8.30;99.90;;;;;;5112248;28;20092;-76
2022/01/04 10:54:30;;;;;;;27.80;15.45;;;8.40;99.90;;;;;;5111949;28;20020;-75
2022/01/04 10:57:07;;;;;;;26.00;16.30;;;8.50;99.90;;;;;;5116117;28;20038;-76
2022/01/04 10:59:34;;;;;;;25.53;14.97;;;8.50;99.90;;;;;;5117440;28;20517;-76
2022/01/04 11:01:59;;;;;;;23.90;14.80;;;8.60;99.90;;;;;;5117160;28;20035;-76
2022/01/04 11:04:26;;;;;;;28.70;16.47;;;8.70;99.90;;;;;;5115573;28;20027;-76
2022/01/04 11:06:59;;;;;;;29.83;18.60;;;8.70;99.90;;;;;;5116957;28;20133;-76
2022/01/04 11:09:25;;;;;;;31.95;19.98;;;8.70;99.90;;;;;;5116731;28;20024;-76
2022/01/04 11:11:51;;;;;;;34.77;19.70;;;8.80;99.90;;;;;;5116701;28;20380;-76
2022/01/04 11:14:17;;;;;;;34.07;19.60;;;8.80;99.90;;;;;;5116165;28;20035;-76
2022/01/04 11:16:43;;;;;;;35.23;21.27;;;8.80;99.90;;;;;;5115376;28;20032;-76
2022/01/04 11:19:09;;;;;;;36.73;21.80;;;8.70;99.90;;;;;;5098307;28;20084;-76
2022/01/04 11:21:37;;;;;;;38.10;21.90;;;8.90;99.90;;;;;;5115878;28;20380;-76
2022/01/04 11:24:07;;;;;;;33.40;20.37;;;8.90;99.90;;;;;;5116150;28;20376;-76
2022/01/04 11:26:33;;;;;;;32.67;19.70;;;8.90;99.90;;;;;;5116430;28;20023;-76
2022/01/04 11:29:00;;;;;;;31.37;18.37;;;9.00;99.90;;;;;;5116539;28;20104;-77
2022/01/04 11:31:33;;;;;;;28.23;16.63;;;8.90;99.90;;;;;;5115183;28;20023;-76
2022/01/04 11:34:10;;;;;;;32.50;17.53;;;8.90;99.90;;;;;;5114689;28;20024;-77
2022/01/04 11:36:44;;;;;;;28.90;16.57;;;8.90;99.90;;;;;;5114764;28;20030;-76
2022/01/04 11:39:36;;;;;;;27.23;15.43;;;8.90;99.90;;;;;;5115024;28;20616;-76
2022/01/04 11:42:07;;;;;;;31.63;17.70;;;8.90;99.90;;;;;;5099098;28;20425;-76
2022/01/04 11:44:34;;;;;;;28.87;16.80;;;8.80;99.90;;;;;;5116218;27;20036;-80
2022/01/04 11:47:07;;;;;;;32.57;17.87;;;8.80;99.90;;;;;;5098267;28;20103;-76
2022/01/04 11:49:36;;;;;;;24.60;14.77;;;8.80;99.90;;;;;;5116123;28;20026;-77
2022/01/04 11:52:03;;;;;;;26.20;16.37;;;8.70;99.90;;;;;;5115983;28;20016;-76
2022/01/04 11:54:31;;;;;;;31.07;17.07;;;8.70;99.90;;;;;;5115449;28;20024;-76
2022/01/04 11:57:06;;;;;;;26.83;16.37;;;8.70;99.90;;;;;;5114129;28;20059;-76
2022/01/04 11:59:47;;;;;;;28.60;15.73;;;8.70;99.90;;;;;;5115329;28;20024;-77
2022/01/04 12:02:31;;;;;;;27.57;15.07;;;8.70;99.90;;;;;;5115678;28;20042;-82
2022/01/04 12:05:24;;;;;;;27.50;14.25;;;8.80;99.90;;;;;;5114300;28;20399;-76
2022/01/04 12:07:55;;;;;;;23.67;12.73;;;8.70;99.90;;;;;;5108057;28;20038;-76
2022/01/04 12:10:20;;;;;;;25.97;12.23;;;8.60;99.90;;;;;;5115345;28;20024;-76
2022/01/04 12:13:11;;;;;;;21.47;11.23;;;8.60;99.90;;;;;;5115438;28;20433;-76
2022/01/04 12:15:37;;;;;;;20.80;10.80;;;8.60;99.90;;;;;;5114076;28;20592;-76
2022/01/04 12:18:08;;;;;;;19.47;10.07;;;8.60;99.90;;;;;;5115140;28;20024;-77
2022/01/04 12:20:43;;;;;;;17.17;8.20;;;8.60;99.90;;;;;;5114124;28;20016;-77
2022/01/04 12:23:27;;;;;;;27.53;12.00;;;8.60;99.90;;;;;;5115728;28;20024;-76
2022/01/04 12:26:15;;;;;;;19.33;10.07;;;8.60;99.90;;;;;;5113765;28;20030;-76
2022/01/04 12:28:59;;;;;;;24.00;10.17;;;8.50;99.90;;;;;;5106692;28;20043;-75
2022/01/04 12:31:32;;;;;;;17.35;9.57;;;8.50;99.90;;;;;;5114989;28;20031;-75
2022/01/04 12:34:22;;;;;;;17.33;9.60;;;8.50;99.90;;;;;;5115080;28;20039;-76
2022/01/04 12:36:48;;;;;;;17.63;8.90;;;8.40;99.90;;;;;;5115145;28;20366;-76
2022/01/04 12:39:17;;;;;;;16.47;8.10;;;8.40;99.90;;;;;;5097023;28;20055;-76
2022/01/04 12:41:46;;;;;;;17.47;7.40;;;8.50;99.90;;;;;;5114612;28;20024;-76
2022/01/04 12:44:14;;;;;;;17.97;7.00;;;8.40;99.90;;;;;;5113711;28;20020;-76
2022/01/04 12:46:46;;;;;;;18.30;6.53;;;8.30;99.90;;;;;;5113520;28;20024;-77
2022/01/04 12:49:20;;;;;;;14.50;6.70;;;8.30;99.90;;;;;;5114752;28;20026;-76
2022/01/04 12:51:53;;;;;;;15.63;6.78;;;8.30;99.90;;;;;;5113460;28;20007;-75
2022/01/04 12:54:22;;;;;;;13.00;4.20;;;8.20;99.90;;;;;;5115017;28;20031;-75
2022/01/04 12:56:54;;;;;;;19.17;7.60;;;8.20;99.90;;;;;;5113915;28;20028;-75